Terminal Aerodrome Forecast
Issued by NWS

Home | Current Version | Previous Version | Text Only | Print | Product List | Glossary On
Versions: 1 2 3 4 5 6 7 8 9 10 11 12 13 14 15 16 17 18 19 20 21
578
FTUS41 KALY 072344 CCA
TAFPSF
TAF COR
KPSF 072344Z 0800/0824 VRB03KT P6SM BKN250
     FM080600 05005KT P6SM SCT025 BKN060 OVC200
     FM080900 06008KT P6SM BKN025 OVC060
     FM081500 04009KT P6SM VCSH OVC025
     FM081700 05010KT 3SM -SN BR BKN015 OVC025=

USA.gov is the U.S. government's official web portal to all federal, state and local government web resources and services.